»·PEaware :: N520MP KMRY-KSBA

N520MP :: KMRY-KSBA

FLIGHT INFORMATION

Flight Status: Arrived
Operator: Privately registered:
United States
More flights under this callsign
Pilot: Manuel P. (9695)
Aircraft: CANADAIR CL-600 CRJ-200
(CRJ2)
More flights by this aircraft type
Origin: KMRY Monterey Peninsula
United States
Destination: KSBA Santa Barbara Mun
United States
More flights between these airports :: More routes between these airports
Route: MRY4 MRY SERFR GVO
File this flight plan on PilotEdge
Remarks:
Altitude:
(Current/Filed)
17,000ft
Speed:
(Current/Filed)
400kts
Departed: 14-Sep-17 02:27 PM
Arrived: 14-Sep-17 03:05 PM
Distance/Time
Traveled:
163nm/0:38
Distance/Time
To Go:
Arrived

Flight Plot

Page will automatically refresh every two minutes.

Flight plan parsing failed; only flown route is shown


Map Options




Map Legend


Flown Route
Filed Route
Departure Airport
Arrival Airport
Navaid (VOR, NDB)
Fix

Horizontal Profiles

Position Reports

Time Latitude Longitude Heading Altitude Ground
Speed
14-Sep-17 14:07 36.588444 -121.853035 22 260ft 0kts
14-Sep-17 14:08 36.588444 -121.853035 22 260ft 0kts
14-Sep-17 14:09 36.588444 -121.853035 22 260ft 0kts
14-Sep-17 14:10 36.588444 -121.853035 22 260ft 0kts
14-Sep-17 14:11 36.588444 -121.853035 22 260ft 0kts
14-Sep-17 14:12 36.588444 -121.853035 22 260ft 0kts
14-Sep-17 14:13 36.588444 -121.853035 22 260ft 0kts
14-Sep-17 14:14 36.588444 -121.853035 22 260ft 0kts
14-Sep-17 14:15 36.588444 -121.853035 22 260ft 0kts
14-Sep-17 14:16 36.588444 -121.853035 22 260ft 0kts
14-Sep-17 14:17 36.588444 -121.853035 22 260ft 0kts
14-Sep-17 14:18 36.588444 -121.853035 22 260ft 0kts
14-Sep-17 14:19 36.588444 -121.853035 22 260ft 0kts
14-Sep-17 14:20 36.588444 -121.853035 22 260ft 0kts
14-Sep-17 14:21 36.588444 -121.853035 22 260ft 0kts
14-Sep-17 14:22 36.588444 -121.853035 22 260ft 0kts
14-Sep-17 14:23 36.588444 -121.853035 22 260ft 0kts
14-Sep-17 14:24 36.588444 -121.853035 22 260ft 0kts
14-Sep-17 14:25 36.588444 -121.853035 22 260ft 0kts
14-Sep-17 14:26 36.588444 -121.853035 22 260ft 0kts
14-Sep-17 14:27 36.588614 -121.851629 111 260ft 12kts
14-Sep-17 14:28 36.586086 -121.844614 113 260ft 27kts
14-Sep-17 14:29 36.583535 -121.837012 112 260ft 24kts
14-Sep-17 14:30 36.582874 -121.834957 101 260ft 0kts
14-Sep-17 14:31 36.584809 -121.838007 292 260ft 89kts
14-Sep-17 14:32 36.609560 -121.880861 343 2493ft 179kts
14-Sep-17 14:33 36.658231 -121.894708 342 5086ft 206kts
14-Sep-17 14:34 36.719933 -121.915514 342 7081ft 260kts
14-Sep-17 14:35 36.791582 -121.939506 342 9340ft 274kts
14-Sep-17 14:36 36.857809 -121.981405 294 11598ft 283kts
14-Sep-17 14:37 36.823673 -122.067230 203 13024ft 341kts
14-Sep-17 14:38 36.721353 -122.072104 183 14066ft 382kts
14-Sep-17 14:39 36.637860 -121.996966 111 15543ft 408kts
14-Sep-17 14:40 36.586572 -121.871006 134 16828ft 415kts
14-Sep-17 14:41 36.495228 -121.785648 144 16983ft 418kts
14-Sep-17 14:42 36.401774 -121.693584 143 16988ft 443kts
14-Sep-17 14:43 36.304066 -121.596814 143 16983ft 449kts
14-Sep-17 14:44 36.207493 -121.501491 143 16982ft 442kts
14-Sep-17 14:45 36.111582 -121.407134 143 16983ft 439kts
14-Sep-17 14:46 36.013861 -121.318480 148 16979ft 437kts
14-Sep-17 14:47 35.914023 -121.234100 148 16925ft 436kts
14-Sep-17 14:48 35.814703 -121.150378 148 16924ft 435kts
14-Sep-17 14:49 35.715214 -121.066775 148 16925ft 437kts
14-Sep-17 14:50 35.615039 -120.982853 148 16926ft 440kts
14-Sep-17 14:51 35.513980 -120.898452 148 16951ft 442kts
14-Sep-17 14:52 35.412714 -120.814140 148 16951ft 443kts
14-Sep-17 14:53 35.313712 -120.731964 148 16978ft 444kts
14-Sep-17 14:54 35.212140 -120.647912 148 16980ft 445kts
14-Sep-17 14:55 35.110387 -120.563968 148 16980ft 445kts
14-Sep-17 14:56 35.008136 -120.479872 148 16981ft 446kts
14-Sep-17 14:57 34.905961 -120.396121 147 17008ft 444kts
14-Sep-17 14:58 34.804825 -120.313424 148 16652ft 441kts
14-Sep-17 14:59 34.706094 -120.232942 147 14145ft 419kts
14-Sep-17 15:00 34.614802 -120.152371 136 11506ft 391kts
14-Sep-17 15:01 34.549244 -120.076025 136 8829ft 304kts
14-Sep-17 15:02 34.490669 -120.007686 136 6244ft 291kts
14-Sep-17 15:03 34.437567 -119.937623 130 3700ft 271kts
14-Sep-17 15:04 34.401115 -119.865539 106 2776ft 235kts
14-Sep-17 15:05 34.390697 -119.793174 98 2297ft 203kts
14-Sep-17 15:06 34.411005 -119.748870 340 2155ft 153kts
14-Sep-17 15:07 34.429045 -119.792083 267 840ft 146kts
14-Sep-17 15:08 34.427906 -119.835651 267 28ft 116kts
14-Sep-17 15:09 34.427030 -119.846338 184 18ft 1kts
14-Sep-17 15:10 34.426622 -119.843037 88 18ft 21kts
14-Sep-17 15:11 34.426167 -119.838156 161 18ft 8kts
14-Sep-17 15:12 34.423302 -119.837360 174 18ft 12kts
14-Sep-17 15:13 34.422719 -119.835988 75 18ft 1kts
14-Sep-17 15:14 34.422825 -119.835882 357 18ft 0kts
14-Sep-17 15:15 34.422824 -119.835882 357 18ft 0kts
14-Sep-17 15:16 34.422824 -119.835882 357 18ft 0kts
14-Sep-17 15:17 34.422824 -119.835882 357 18ft 0kts
14-Sep-17 15:18 34.422824 -119.835882 357 18ft 0kts

Navigation Log

Ident Type
Flight plan parsing failed, navigation log unavailable